sensor_id;sensor_type;location;lat;lon;timestamp;P1;durP1;ratioP1;P2;durP2;ratioP2
10699;SDS011;5401;41.986;21.452;2023-03-14T00:00:52;58.87;;;37.73;;
10699;SDS011;5401;41.986;21.452;2023-03-14T00:03:19;69.27;;;41.70;;
10699;SDS011;5401;41.986;21.452;2023-03-14T00:05:47;63.60;;;39.60;;
10699;SDS011;5401;41.986;21.452;2023-03-14T00:08:14;64.70;;;37.93;;
10699;SDS011;5401;41.986;21.452;2023-03-14T00:10:42;58.13;;;33.37;;
10699;SDS011;5401;41.986;21.452;2023-03-14T00:13:11;66.50;;;39.03;;
10699;SDS011;5401;41.986;21.452;2023-03-14T00:15:38;53.13;;;34.20;;
10699;SDS011;5401;41.986;21.452;2023-03-14T00:18:06;53.63;;;34.93;;
10699;SDS011;5401;41.986;21.452;2023-03-14T00:20:34;58.83;;;35.03;;
10699;SDS011;5401;41.986;21.452;2023-03-14T00:23:01;63.80;;;36.23;;
10699;SDS011;5401;41.986;21.452;2023-03-14T00:25:29;63.47;;;34.17;;
10699;SDS011;5401;41.986;21.452;2023-03-14T00:27:56;50.20;;;31.90;;
10699;SDS011;5401;41.986;21.452;2023-03-14T00:30:26;61.13;;;31.37;;
10699;SDS011;5401;41.986;21.452;2023-03-14T00:32:54;47.30;;;27.20;;
10699;SDS011;5401;41.986;21.452;2023-03-14T00:35:21;38.40;;;24.80;;
10699;SDS011;5401;41.986;21.452;2023-03-14T00:37:49;35.93;;;23.87;;
10699;SDS011;5401;41.986;21.452;2023-03-14T00:40:17;42.10;;;24.20;;
10699;SDS011;5401;41.986;21.452;2023-03-14T00:42:44;43.33;;;24.73;;
10699;SDS011;5401;41.986;21.452;2023-03-14T00:45:12;41.07;;;25.07;;
10699;SDS011;5401;41.986;21.452;2023-03-14T00:47:41;39.27;;;24.77;;
10699;SDS011;5401;41.986;21.452;2023-03-14T00:50:11;47.73;;;25.57;;
10699;SDS011;5401;41.986;21.452;2023-03-14T00:52:38;50.37;;;30.70;;
10699;SDS011;5401;41.986;21.452;2023-03-14T00:55:07;52.40;;;32.10;;
10699;SDS011;5401;41.986;21.452;2023-03-14T00:57:35;52.50;;;31.40;;
10699;SDS011;5401;41.986;21.452;2023-03-14T01:00:03;51.70;;;32.17;;
10699;SDS011;5401;41.986;21.452;2023-03-14T01:02:33;47.00;;;32.10;;
10699;SDS011;5401;41.986;21.452;2023-03-14T01:05:03;44.70;;;31.97;;
10699;SDS011;5401;41.986;21.452;2023-03-14T01:07:30;50.77;;;32.70;;
10699;SDS011;5401;41.986;21.452;2023-03-14T01:09:58;61.07;;;32.60;;
10699;SDS011;5401;41.986;21.452;2023-03-14T01:12:27;51.23;;;32.07;;
10699;SDS011;5401;41.986;21.452;2023-03-14T01:14:55;46.03;;;31.23;;
10699;SDS011;5401;41.986;21.452;2023-03-14T01:17:23;49.43;;;31.17;;
10699;SDS011;5401;41.986;21.452;2023-03-14T01:19:50;51.00;;;29.77;;
10699;SDS011;5401;41.986;21.452;2023-03-14T01:22:19;50.97;;;32.03;;
10699;SDS011;5401;41.986;21.452;2023-03-14T01:24:47;48.90;;;30.53;;
10699;SDS011;5401;41.986;21.452;2023-03-14T01:27:15;52.77;;;29.70;;
10699;SDS011;5401;41.986;21.452;2023-03-14T01:29:42;50.60;;;29.43;;
10699;SDS011;5401;41.986;21.452;2023-03-14T01:32:10;44.30;;;28.93;;
10699;SDS011;5401;41.986;21.452;2023-03-14T01:34:37;61.20;;;30.37;;
10699;SDS011;5401;41.986;21.452;2023-03-14T01:37:05;48.70;;;29.33;;
10699;SDS011;5401;41.986;21.452;2023-03-14T01:39:35;50.20;;;31.80;;
10699;SDS011;5401;41.986;21.452;2023-03-14T01:42:02;52.53;;;29.70;;
10699;SDS011;5401;41.986;21.452;2023-03-14T01:47:16;42.57;;;26.70;;
10699;SDS011;5401;41.986;21.452;2023-03-14T01:49:44;41.17;;;23.73;;
10699;SDS011;5401;41.986;21.452;2023-03-14T01:52:13;34.13;;;22.23;;
10699;SDS011;5401;41.986;21.452;2023-03-14T01:54:47;32.93;;;18.00;;
10699;SDS011;5401;41.986;21.452;2023-03-14T01:57:19;33.83;;;18.27;;
10699;SDS011;5401;41.986;21.452;2023-03-14T01:59:50;27.00;;;16.43;;
10699;SDS011;5401;41.986;21.452;2023-03-14T02:02:22;31.40;;;18.83;;
10699;SDS011;5401;41.986;21.452;2023-03-14T02:04:51;29.67;;;17.37;;
10699;SDS011;5401;41.986;21.452;2023-03-14T02:07:21;28.80;;;17.60;;
10699;SDS011;5401;41.986;21.452;2023-03-14T02:09:53;33.83;;;18.83;;
10699;SDS011;5401;41.986;21.452;2023-03-14T02:12:23;35.57;;;19.70;;
10699;SDS011;5401;41.986;21.452;2023-03-14T02:14:50;26.47;;;18.40;;
10699;SDS011;5401;41.986;21.452;2023-03-14T02:17:18;31.60;;;20.10;;
10699;SDS011;5401;41.986;21.452;2023-03-14T02:19:50;45.23;;;24.87;;
10699;SDS011;5401;41.986;21.452;2023-03-14T02:22:30;43.10;;;26.47;;
10699;SDS011;5401;41.986;21.452;2023-03-14T02:25:02;37.23;;;23.57;;
10699;SDS011;5401;41.986;21.452;2023-03-14T02:27:36;39.60;;;23.70;;
10699;SDS011;5401;41.986;21.452;2023-03-14T02:30:05;55.97;;;28.23;;
10699;SDS011;5401;41.986;21.452;2023-03-14T02:32:37;48.43;;;24.70;;
10699;SDS011;5401;41.986;21.452;2023-03-14T02:35:08;50.57;;;27.70;;
10699;SDS011;5401;41.986;21.452;2023-03-14T02:37:39;42.03;;;26.90;;
10699;SDS011;5401;41.986;21.452;2023-03-14T02:40:10;36.87;;;23.77;;
10699;SDS011;5401;41.986;21.452;2023-03-14T02:42:40;39.87;;;24.63;;
10699;SDS011;5401;41.986;21.452;2023-03-14T02:48:06;39.80;;;22.73;;
10699;SDS011;5401;41.986;21.452;2023-03-14T02:50:38;42.90;;;23.50;;
10699;SDS011;5401;41.986;21.452;2023-03-14T02:53:05;44.50;;;25.60;;
10699;SDS011;5401;41.986;21.452;2023-03-14T02:55:33;44.20;;;25.43;;
10699;SDS011;5401;41.986;21.452;2023-03-14T02:58:02;38.17;;;22.97;;
10699;SDS011;5401;41.986;21.452;2023-03-14T03:00:29;39.60;;;22.23;;
10699;SDS011;5401;41.986;21.452;2023-03-14T03:02:57;42.17;;;26.70;;
10699;SDS011;5401;41.986;21.452;2023-03-14T03:05:24;45.10;;;24.03;;
10699;SDS011;5401;41.986;21.452;2023-03-14T03:07:52;32.97;;;23.87;;
10699;SDS011;5401;41.986;21.452;2023-03-14T03:10:19;38.00;;;25.07;;
10699;SDS011;5401;41.986;21.452;2023-03-14T03:12:47;39.70;;;25.27;;
10699;SDS011;5401;41.986;21.452;2023-03-14T03:15:16;42.47;;;23.33;;
10699;SDS011;5401;41.986;21.452;2023-03-14T03:17:45;43.10;;;23.97;;
10699;SDS011;5401;41.986;21.452;2023-03-14T03:20:12;43.10;;;23.57;;
10699;SDS011;5401;41.986;21.452;2023-03-14T03:22:40;38.67;;;23.40;;
10699;SDS011;5401;41.986;21.452;2023-03-14T03:25:08;43.27;;;24.07;;
10699;SDS011;5401;41.986;21.452;2023-03-14T03:27:36;38.77;;;23.63;;
10699;SDS011;5401;41.986;21.452;2023-03-14T03:30:05;42.23;;;24.57;;
10699;SDS011;5401;41.986;21.452;2023-03-14T03:32:35;41.77;;;24.20;;
10699;SDS011;5401;41.986;21.452;2023-03-14T03:35:03;41.67;;;24.77;;
10699;SDS011;5401;41.986;21.452;2023-03-14T03:37:31;38.57;;;24.37;;
10699;SDS011;5401;41.986;21.452;2023-03-14T03:40:00;40.93;;;24.90;;
10699;SDS011;5401;41.986;21.452;2023-03-14T03:42:30;43.37;;;24.97;;
10699;SDS011;5401;41.986;21.452;2023-03-14T03:44:57;42.47;;;24.03;;
10699;SDS011;5401;41.986;21.452;2023-03-14T03:47:25;41.80;;;25.17;;
10699;SDS011;5401;41.986;21.452;2023-03-14T03:49:54;35.43;;;22.90;;
10699;SDS011;5401;41.986;21.452;2023-03-14T03:52:22;31.17;;;21.40;;
10699;SDS011;5401;41.986;21.452;2023-03-14T03:54:49;35.43;;;23.40;;
10699;SDS011;5401;41.986;21.452;2023-03-14T03:57:17;36.23;;;23.77;;
10699;SDS011;5401;41.986;21.452;2023-03-14T03:59:44;40.23;;;25.07;;
10699;SDS011;5401;41.986;21.452;2023-03-14T04:02:12;37.80;;;24.30;;
10699;SDS011;5401;41.986;21.452;2023-03-14T04:04:39;41.67;;;25.00;;
10699;SDS011;5401;41.986;21.452;2023-03-14T04:07:08;43.87;;;25.80;;
10699;SDS011;5401;41.986;21.452;2023-03-14T04:09:37;38.73;;;25.53;;
10699;SDS011;5401;41.986;21.452;2023-03-14T04:12:04;42.63;;;26.27;;
10699;SDS011;5401;41.986;21.452;2023-03-14T04:14:32;41.73;;;25.43;;
10699;SDS011;5401;41.986;21.452;2023-03-14T04:17:00;41.87;;;25.67;;
10699;SDS011;5401;41.986;21.452;2023-03-14T04:19:27;37.93;;;25.30;;
10699;SDS011;5401;41.986;21.452;2023-03-14T04:21:55;44.23;;;27.50;;
10699;SDS011;5401;41.986;21.452;2023-03-14T04:24:24;37.70;;;25.43;;
10699;SDS011;5401;41.986;21.452;2023-03-14T04:26:51;41.33;;;26.10;;
10699;SDS011;5401;41.986;21.452;2023-03-14T04:29:19;43.30;;;25.90;;
10699;SDS011;5401;41.986;21.452;2023-03-14T04:31:46;38.33;;;25.07;;
10699;SDS011;5401;41.986;21.452;2023-03-14T04:34:14;45.27;;;26.47;;
10699;SDS011;5401;41.986;21.452;2023-03-14T04:36:41;42.17;;;26.23;;
10699;SDS011;5401;41.986;21.452;2023-03-14T04:39:09;40.00;;;25.03;;
10699;SDS011;5401;41.986;21.452;2023-03-14T04:41:38;40.60;;;24.93;;
10699;SDS011;5401;41.986;21.452;2023-03-14T04:44:05;36.60;;;22.00;;
10699;SDS011;5401;41.986;21.452;2023-03-14T04:46:33;36.70;;;21.43;;
10699;SDS011;5401;41.986;21.452;2023-03-14T04:49:00;41.00;;;24.27;;
10699;SDS011;5401;41.986;21.452;2023-03-14T04:51:28;33.03;;;20.60;;
10699;SDS011;5401;41.986;21.452;2023-03-14T04:53:55;28.47;;;20.37;;
10699;SDS011;5401;41.986;21.452;2023-03-14T04:56:23;35.80;;;22.63;;
10699;SDS011;5401;41.986;21.452;2023-03-14T04:58:52;46.53;;;26.40;;
10699;SDS011;5401;41.986;21.452;2023-03-14T05:01:20;45.60;;;25.47;;
10699;SDS011;5401;41.986;21.452;2023-03-14T05:03:47;42.20;;;26.77;;
10699;SDS011;5401;41.986;21.452;2023-03-14T05:06:14;49.63;;;29.10;;
10699;SDS011;5401;41.986;21.452;2023-03-14T05:08:42;44.07;;;27.93;;
10699;SDS011;5401;41.986;21.452;2023-03-14T05:11:10;40.90;;;26.00;;
10699;SDS011;5401;41.986;21.452;2023-03-14T05:13:38;44.60;;;26.00;;
10699;SDS011;5401;41.986;21.452;2023-03-14T05:16:08;38.23;;;25.20;;
10699;SDS011;5401;41.986;21.452;2023-03-14T05:18:37;40.23;;;24.30;;
10699;SDS011;5401;41.986;21.452;2023-03-14T05:21:05;37.77;;;22.97;;
10699;SDS011;5401;41.986;21.452;2023-03-14T05:23:32;35.73;;;24.10;;
10699;SDS011;5401;41.986;21.452;2023-03-14T05:26:00;42.57;;;24.07;;
10699;SDS011;5401;41.986;21.452;2023-03-14T05:28:27;38.70;;;23.27;;
10699;SDS011;5401;41.986;21.452;2023-03-14T05:30:55;34.93;;;24.47;;
10699;SDS011;5401;41.986;21.452;2023-03-14T05:33:24;41.33;;;25.50;;
10699;SDS011;5401;41.986;21.452;2023-03-14T05:35:51;37.57;;;23.13;;
10699;SDS011;5401;41.986;21.452;2023-03-14T05:38:19;33.90;;;21.60;;
10699;SDS011;5401;41.986;21.452;2023-03-14T05:40:47;27.50;;;18.30;;
10699;SDS011;5401;41.986;21.452;2023-03-14T05:43:15;26.73;;;18.77;;
10699;SDS011;5401;41.986;21.452;2023-03-14T05:45:43;30.57;;;20.33;;
10699;SDS011;5401;41.986;21.452;2023-03-14T05:48:10;29.53;;;19.10;;
10699;SDS011;5401;41.986;21.452;2023-03-14T05:50:39;24.77;;;18.07;;
10699;SDS011;5401;41.986;21.452;2023-03-14T05:53:06;32.93;;;17.33;;
10699;SDS011;5401;41.986;21.452;2023-03-14T05:55:34;24.33;;;17.60;;
10699;SDS011;5401;41.986;21.452;2023-03-14T05:58:01;26.97;;;17.93;;
10699;SDS011;5401;41.986;21.452;2023-03-14T06:00:29;28.43;;;17.50;;
10699;SDS011;5401;41.986;21.452;2023-03-14T06:02:56;31.33;;;17.87;;
10699;SDS011;5401;41.986;21.452;2023-03-14T06:05:24;28.43;;;18.33;;
10699;SDS011;5401;41.986;21.452;2023-03-14T06:07:53;27.97;;;18.73;;
10699;SDS011;5401;41.986;21.452;2023-03-14T06:10:20;27.23;;;18.47;;
10699;SDS011;5401;41.986;21.452;2023-03-14T06:12:49;34.87;;;18.50;;
10699;SDS011;5401;41.986;21.452;2023-03-14T06:15:16;42.43;;;19.90;;
10699;SDS011;5401;41.986;21.452;2023-03-14T06:17:44;38.70;;;20.60;;
10699;SDS011;5401;41.986;21.452;2023-03-14T06:20:12;44.83;;;22.23;;
10699;SDS011;5401;41.986;21.452;2023-03-14T06:22:40;26.50;;;17.90;;
10699;SDS011;5401;41.986;21.452;2023-03-14T06:25:09;32.13;;;17.63;;
10699;SDS011;5401;41.986;21.452;2023-03-14T06:27:37;26.30;;;17.03;;
10699;SDS011;5401;41.986;21.452;2023-03-14T06:30:05;27.53;;;18.00;;
10699;SDS011;5401;41.986;21.452;2023-03-14T06:32:33;27.67;;;16.80;;
10699;SDS011;5401;41.986;21.452;2023-03-14T06:35:01;29.03;;;15.80;;
10699;SDS011;5401;41.986;21.452;2023-03-14T06:37:29;25.33;;;15.67;;
10699;SDS011;5401;41.986;21.452;2023-03-14T06:39:57;31.87;;;17.17;;
10699;SDS011;5401;41.986;21.452;2023-03-14T06:42:26;23.73;;;16.23;;
10699;SDS011;5401;41.986;21.452;2023-03-14T06:44:53;31.00;;;16.40;;
10699;SDS011;5401;41.986;21.452;2023-03-14T06:47:21;22.87;;;16.17;;
10699;SDS011;5401;41.986;21.452;2023-03-14T06:49:48;26.63;;;17.33;;
10699;SDS011;5401;41.986;21.452;2023-03-14T06:52:15;29.87;;;18.10;;
10699;SDS011;5401;41.986;21.452;2023-03-14T06:54:43;29.83;;;17.63;;
10699;SDS011;5401;41.986;21.452;2023-03-14T06:57:10;33.73;;;18.73;;
10699;SDS011;5401;41.986;21.452;2023-03-14T06:59:39;33.97;;;20.20;;
10699;SDS011;5401;41.986;21.452;2023-03-14T07:02:07;39.80;;;21.93;;
10699;SDS011;5401;41.986;21.452;2023-03-14T07:04:37;35.50;;;21.87;;
10699;SDS011;5401;41.986;21.452;2023-03-14T07:07:05;33.83;;;21.50;;
10699;SDS011;5401;41.986;21.452;2023-03-14T07:09:32;37.70;;;22.33;;
10699;SDS011;5401;41.986;21.452;2023-03-14T07:12:01;31.00;;;20.60;;
10699;SDS011;5401;41.986;21.452;2023-03-14T07:14:29;33.07;;;21.97;;
10699;SDS011;5401;41.986;21.452;2023-03-14T07:16:59;29.00;;;19.40;;
10699;SDS011;5401;41.986;21.452;2023-03-14T07:19:27;27.50;;;18.50;;
10699;SDS011;5401;41.986;21.452;2023-03-14T07:21:54;31.40;;;18.50;;
10699;SDS011;5401;41.986;21.452;2023-03-14T07:24:24;31.67;;;20.17;;
10699;SDS011;5401;41.986;21.452;2023-03-14T07:26:51;30.93;;;18.13;;
10699;SDS011;5401;41.986;21.452;2023-03-14T07:29:19;31.67;;;19.50;;
10699;SDS011;5401;41.986;21.452;2023-03-14T07:31:46;26.47;;;17.23;;
10699;SDS011;5401;41.986;21.452;2023-03-14T07:34:15;29.03;;;17.93;;
10699;SDS011;5401;41.986;21.452;2023-03-14T07:36:42;38.00;;;19.80;;
10699;SDS011;5401;41.986;21.452;2023-03-14T07:39:10;26.67;;;17.93;;
10699;SDS011;5401;41.986;21.452;2023-03-14T07:41:37;28.93;;;18.07;;
10699;SDS011;5401;41.986;21.452;2023-03-14T07:44:05;29.93;;;17.57;;
10699;SDS011;5401;41.986;21.452;2023-03-14T07:46:33;27.87;;;17.60;;
10699;SDS011;5401;41.986;21.452;2023-03-14T07:49:00;29.87;;;17.90;;
10699;SDS011;5401;41.986;21.452;2023-03-14T07:51:29;23.23;;;16.33;;
10699;SDS011;5401;41.986;21.452;2023-03-14T07:53:57;27.47;;;17.83;;
10699;SDS011;5401;41.986;21.452;2023-03-14T07:56:24;28.40;;;18.20;;
10699;SDS011;5401;41.986;21.452;2023-03-14T07:58:52;27.30;;;16.40;;
10699;SDS011;5401;41.986;21.452;2023-03-14T08:01:20;26.30;;;16.80;;
10699;SDS011;5401;41.986;21.452;2023-03-14T08:03:47;36.90;;;17.73;;
10699;SDS011;5401;41.986;21.452;2023-03-14T08:06:14;26.30;;;17.90;;
10699;SDS011;5401;41.986;21.452;2023-03-14T08:08:43;30.13;;;17.73;;
10699;SDS011;5401;41.986;21.452;2023-03-14T08:11:11;30.73;;;18.87;;
10699;SDS011;5401;41.986;21.452;2023-03-14T08:13:39;27.67;;;18.00;;
10699;SDS011;5401;41.986;21.452;2023-03-14T08:16:07;26.87;;;18.07;;
10699;SDS011;5401;41.986;21.452;2023-03-14T08:18:35;25.83;;;17.37;;
10699;SDS011;5401;41.986;21.452;2023-03-14T08:21:04;25.17;;;16.77;;
10699;SDS011;5401;41.986;21.452;2023-03-14T08:23:32;32.87;;;18.10;;
10699;SDS011;5401;41.986;21.452;2023-03-14T08:26:00;26.23;;;17.07;;
10699;SDS011;5401;41.986;21.452;2023-03-14T08:28:28;28.77;;;17.93;;
10699;SDS011;5401;41.986;21.452;2023-03-14T08:30:58;33.87;;;18.53;;
10699;SDS011;5401;41.986;21.452;2023-03-14T08:33:26;30.37;;;16.23;;
10699;SDS011;5401;41.986;21.452;2023-03-14T08:35:55;25.33;;;14.90;;
10699;SDS011;5401;41.986;21.452;2023-03-14T08:38:23;31.13;;;14.27;;
10699;SDS011;5401;41.986;21.452;2023-03-14T08:40:55;23.30;;;12.77;;
10699;SDS011;5401;41.986;21.452;2023-03-14T08:43:25;20.93;;;13.73;;
10699;SDS011;5401;41.986;21.452;2023-03-14T08:45:53;26.87;;;14.10;;
10699;SDS011;5401;41.986;21.452;2023-03-14T08:48:21;21.47;;;13.53;;
10699;SDS011;5401;41.986;21.452;2023-03-14T08:50:48;21.60;;;13.10;;
10699;SDS011;5401;41.986;21.452;2023-03-14T08:53:15;17.83;;;12.47;;
10699;SDS011;5401;41.986;21.452;2023-03-14T08:55:44;21.97;;;12.50;;
10699;SDS011;5401;41.986;21.452;2023-03-14T08:58:11;17.57;;;11.87;;
10699;SDS011;5401;41.986;21.452;2023-03-14T09:00:40;15.27;;;10.10;;
10699;SDS011;5401;41.986;21.452;2023-03-14T09:03:08;23.07;;;11.47;;
10699;SDS011;5401;41.986;21.452;2023-03-14T09:05:35;26.40;;;11.73;;
10699;SDS011;5401;41.986;21.452;2023-03-14T09:08:03;13.87;;;10.23;;
10699;SDS011;5401;41.986;21.452;2023-03-14T09:10:31;15.23;;;11.43;;
10699;SDS011;5401;41.986;21.452;2023-03-14T09:12:58;14.37;;;10.63;;
10699;SDS011;5401;41.986;21.452;2023-03-14T09:15:26;16.60;;;11.60;;
10699;SDS011;5401;41.986;21.452;2023-03-14T09:17:54;17.13;;;11.60;;
10699;SDS011;5401;41.986;21.452;2023-03-14T09:20:22;14.97;;;10.00;;
10699;SDS011;5401;41.986;21.452;2023-03-14T09:22:51;17.03;;;9.50;;
10699;SDS011;5401;41.986;21.452;2023-03-14T09:25:20;10.77;;;9.07;;
10699;SDS011;5401;41.986;21.452;2023-03-14T09:27:47;13.90;;;8.90;;
10699;SDS011;5401;41.986;21.452;2023-03-14T09:30:15;12.67;;;9.13;;
10699;SDS011;5401;41.986;21.452;2023-03-14T09:32:43;14.27;;;8.83;;
10699;SDS011;5401;41.986;21.452;2023-03-14T09:35:11;17.53;;;10.20;;
10699;SDS011;5401;41.986;21.452;2023-03-14T09:37:39;18.30;;;9.03;;
10699;SDS011;5401;41.986;21.452;2023-03-14T09:40:09;12.43;;;7.93;;
10699;SDS011;5401;41.986;21.452;2023-03-14T09:42:40;14.67;;;9.80;;
10699;SDS011;5401;41.986;21.452;2023-03-14T09:45:11;15.50;;;8.70;;
10699;SDS011;5401;41.986;21.452;2023-03-14T09:47:40;12.40;;;8.20;;
10699;SDS011;5401;41.986;21.452;2023-03-14T09:50:10;12.53;;;8.30;;
10699;SDS011;5401;41.986;21.452;2023-03-14T09:52:41;14.37;;;9.27;;
10699;SDS011;5401;41.986;21.452;2023-03-14T09:55:12;16.57;;;8.93;;
10699;SDS011;5401;41.986;21.452;2023-03-14T09:57:42;12.57;;;7.90;;
10699;SDS011;5401;41.986;21.452;2023-03-14T10:02:46;12.67;;;8.33;;
10699;SDS011;5401;41.986;21.452;2023-03-14T10:05:20;14.57;;;9.27;;
10699;SDS011;5401;41.986;21.452;2023-03-14T10:07:49;12.03;;;9.00;;
10699;SDS011;5401;41.986;21.452;2023-03-14T10:10:18;14.77;;;8.67;;
10699;SDS011;5401;41.986;21.452;2023-03-14T10:12:49;10.90;;;8.63;;
10699;SDS011;5401;41.986;21.452;2023-03-14T10:15:24;11.80;;;8.17;;
10699;SDS011;5401;41.986;21.452;2023-03-14T10:17:52;10.20;;;7.93;;
10699;SDS011;5401;41.986;21.452;2023-03-14T10:20:29;10.63;;;7.67;;
10699;SDS011;5401;41.986;21.452;2023-03-14T10:23:02;12.13;;;6.73;;
10699;SDS011;5401;41.986;21.452;2023-03-14T10:25:32;11.43;;;7.23;;
10699;SDS011;5401;41.986;21.452;2023-03-14T10:28:00;10.07;;;6.70;;
10699;SDS011;5401;41.986;21.452;2023-03-14T10:30:32;9.47;;;7.10;;
10699;SDS011;5401;41.986;21.452;2023-03-14T10:33:10;10.20;;;6.47;;
10699;SDS011;5401;41.986;21.452;2023-03-14T10:35:40;7.60;;;6.13;;
10699;SDS011;5401;41.986;21.452;2023-03-14T10:38:11;10.03;;;6.30;;
10699;SDS011;5401;41.986;21.452;2023-03-14T10:40:41;8.90;;;5.47;;
10699;SDS011;5401;41.986;21.452;2023-03-14T10:43:15;8.10;;;5.87;;
10699;SDS011;5401;41.986;21.452;2023-03-14T10:45:47;12.30;;;6.73;;
10699;SDS011;5401;41.986;21.452;2023-03-14T10:48:24;10.23;;;6.50;;
10699;SDS011;5401;41.986;21.452;2023-03-14T10:51:01;13.40;;;6.87;;
10699;SDS011;5401;41.986;21.452;2023-03-14T10:53:38;13.90;;;6.93;;
10699;SDS011;5401;41.986;21.452;2023-03-14T10:56:11;10.83;;;6.30;;
10699;SDS011;5401;41.986;21.452;2023-03-14T10:58:40;8.47;;;6.30;;
10699;SDS011;5401;41.986;21.452;2023-03-14T11:01:15;8.83;;;6.67;;
10699;SDS011;5401;41.986;21.452;2023-03-14T11:03:54;13.47;;;6.30;;
10699;SDS011;5401;41.986;21.452;2023-03-14T11:06:28;8.33;;;5.43;;
10699;SDS011;5401;41.986;21.452;2023-03-14T11:09:05;11.63;;;6.00;;
10699;SDS011;5401;41.986;21.452;2023-03-14T11:11:43;7.97;;;5.60;;
10699;SDS011;5401;41.986;21.452;2023-03-14T11:14:16;9.33;;;5.57;;
10699;SDS011;5401;41.986;21.452;2023-03-14T11:16:52;8.20;;;5.43;;
10699;SDS011;5401;41.986;21.452;2023-03-14T11:22:30;7.13;;;5.50;;
10699;SDS011;5401;41.986;21.452;2023-03-14T11:25:12;6.97;;;4.73;;
10699;SDS011;5401;41.986;21.452;2023-03-14T11:27:46;5.93;;;4.90;;
10699;SDS011;5401;41.986;21.452;2023-03-14T11:30:21;8.03;;;4.97;;
10699;SDS011;5401;41.986;21.452;2023-03-14T11:32:57;7.67;;;3.90;;
10699;SDS011;5401;41.986;21.452;2023-03-14T11:35:33;6.60;;;4.30;;
10699;SDS011;5401;41.986;21.452;2023-03-14T11:38:09;9.87;;;4.20;;
10699;SDS011;5401;41.986;21.452;2023-03-14T11:40:46;4.67;;;4.03;;
10699;SDS011;5401;41.986;21.452;2023-03-14T11:43:18;7.17;;;4.93;;
10699;SDS011;5401;41.986;21.452;2023-03-14T11:45:53;5.97;;;4.03;;
10699;SDS011;5401;41.986;21.452;2023-03-14T11:48:28;11.47;;;4.90;;
10699;SDS011;5401;41.986;21.452;2023-03-14T11:51:02;9.43;;;6.27;;
10699;SDS011;5401;41.986;21.452;2023-03-14T11:53:42;9.00;;;4.73;;
10699;SDS011;5401;41.986;21.452;2023-03-14T11:56:16;6.73;;;4.80;;
10699;SDS011;5401;41.986;21.452;2023-03-14T11:58:54;5.47;;;4.03;;
10699;SDS011;5401;41.986;21.452;2023-03-14T12:01:27;5.70;;;4.70;;
10699;SDS011;5401;41.986;21.452;2023-03-14T12:04:02;7.40;;;4.90;;
10699;SDS011;5401;41.986;21.452;2023-03-14T12:06:37;8.10;;;4.30;;
10699;SDS011;5401;41.986;21.452;2023-03-14T12:09:13;6.13;;;4.00;;
10699;SDS011;5401;41.986;21.452;2023-03-14T12:11:42;21.97;;;14.73;;
10699;SDS011;5401;41.986;21.452;2023-03-14T12:14:18;223.70;;;153.67;;
10699;SDS011;5401;41.986;21.452;2023-03-14T12:16:49;26.47;;;20.60;;
10699;SDS011;5401;41.986;21.452;2023-03-14T12:19:35;6.47;;;4.90;;
10699;SDS011;5401;41.986;21.452;2023-03-14T12:22:26;18.50;;;15.07;;
10699;SDS011;5401;41.986;21.452;2023-03-14T12:24:59;13.10;;;5.57;;
10699;SDS011;5401;41.986;21.452;2023-03-14T12:27:43;18.00;;;10.10;;
10699;SDS011;5401;41.986;21.452;2023-03-14T12:30:17;10.47;;;6.40;;
10699;SDS011;5401;41.986;21.452;2023-03-14T12:36:01;8.33;;;4.90;;
10699;SDS011;5401;41.986;21.452;2023-03-14T12:38:48;19.17;;;8.73;;
10699;SDS011;5401;41.986;21.452;2023-03-14T12:41:28;10.10;;;5.57;;
10699;SDS011;5401;41.986;21.452;2023-03-14T12:50:14;7.47;;;3.60;;
10699;SDS011;5401;41.986;21.452;2023-03-14T12:52:50;5.93;;;3.60;;
10699;SDS011;5401;41.986;21.452;2023-03-14T12:55:28;5.17;;;2.93;;
10699;SDS011;5401;41.986;21.452;2023-03-14T12:58:05;6.53;;;3.00;;
10699;SDS011;5401;41.986;21.452;2023-03-14T13:00:39;5.93;;;3.17;;
10699;SDS011;5401;41.986;21.452;2023-03-14T13:03:16;4.43;;;3.37;;
10699;SDS011;5401;41.986;21.452;2023-03-14T13:05:54;5.30;;;3.40;;
10699;SDS011;5401;41.986;21.452;2023-03-14T13:08:34;8.50;;;3.73;;
10699;SDS011;5401;41.986;21.452;2023-03-14T13:11:10;4.27;;;3.27;;
10699;SDS011;5401;41.986;21.452;2023-03-14T13:13:46;9.17;;;5.30;;
10699;SDS011;5401;41.986;21.452;2023-03-14T13:16:17;6.63;;;3.30;;
10699;SDS011;5401;41.986;21.452;2023-03-14T13:18:47;3.20;;;2.90;;
10699;SDS011;5401;41.986;21.452;2023-03-14T13:21:16;4.30;;;3.50;;
10699;SDS011;5401;41.986;21.452;2023-03-14T13:23:58;3.83;;;3.03;;
10699;SDS011;5401;41.986;21.452;2023-03-14T13:26:32;4.50;;;3.03;;
10699;SDS011;5401;41.986;21.452;2023-03-14T13:29:09;4.70;;;3.03;;
10699;SDS011;5401;41.986;21.452;2023-03-14T13:31:45;4.50;;;3.37;;
10699;SDS011;5401;41.986;21.452;2023-03-14T13:34:17;47.73;;;33.67;;
10699;SDS011;5401;41.986;21.452;2023-03-14T13:36:45;62.93;;;45.90;;
10699;SDS011;5401;41.986;21.452;2023-03-14T13:39:17;14.40;;;10.87;;
10699;SDS011;5401;41.986;21.452;2023-03-14T13:41:47;5.23;;;3.30;;
10699;SDS011;5401;41.986;21.452;2023-03-14T13:44:17;4.53;;;3.73;;
10699;SDS011;5401;41.986;21.452;2023-03-14T13:46:51;10.50;;;3.50;;
10699;SDS011;5401;41.986;21.452;2023-03-14T13:49:20;4.43;;;3.10;;
10699;SDS011;5401;41.986;21.452;2023-03-14T13:51:50;3.90;;;3.50;;
10699;SDS011;5401;41.986;21.452;2023-03-14T13:54:18;4.70;;;3.70;;
10699;SDS011;5401;41.986;21.452;2023-03-14T13:56:48;6.57;;;3.97;;
10699;SDS011;5401;41.986;21.452;2023-03-14T13:59:23;5.57;;;3.47;;
10699;SDS011;5401;41.986;21.452;2023-03-14T14:01:52;5.23;;;3.37;;
10699;SDS011;5401;41.986;21.452;2023-03-14T14:04:20;5.57;;;3.40;;
10699;SDS011;5401;41.986;21.452;2023-03-14T14:06:52;4.57;;;3.50;;
10699;SDS011;5401;41.986;21.452;2023-03-14T14:09:22;4.97;;;3.37;;
10699;SDS011;5401;41.986;21.452;2023-03-14T14:11:53;4.50;;;3.50;;
10699;SDS011;5401;41.986;21.452;2023-03-14T14:14:27;5.27;;;3.33;;
10699;SDS011;5401;41.986;21.452;2023-03-14T14:16:58;4.77;;;3.37;;
10699;SDS011;5401;41.986;21.452;2023-03-14T14:19:28;5.53;;;3.50;;
10699;SDS011;5401;41.986;21.452;2023-03-14T14:21:59;7.07;;;3.83;;
10699;SDS011;5401;41.986;21.452;2023-03-14T14:24:28;6.00;;;3.90;;
10699;SDS011;5401;41.986;21.452;2023-03-14T14:26:58;5.80;;;3.63;;
10699;SDS011;5401;41.986;21.452;2023-03-14T14:29:30;8.07;;;3.20;;
10699;SDS011;5401;41.986;21.452;2023-03-14T14:32:00;5.63;;;3.60;;
10699;SDS011;5401;41.986;21.452;2023-03-14T14:34:30;5.85;;;3.38;;
10699;SDS011;5401;41.986;21.452;2023-03-14T14:37:14;5.43;;;3.40;;
10699;SDS011;5401;41.986;21.452;2023-03-14T14:39:49;6.23;;;3.40;;
10699;SDS011;5401;41.986;21.452;2023-03-14T14:42:20;5.37;;;3.30;;
10699;SDS011;5401;41.986;21.452;2023-03-14T14:44:53;7.03;;;3.80;;
10699;SDS011;5401;41.986;21.452;2023-03-14T14:47:24;10.73;;;8.33;;
10699;SDS011;5401;41.986;21.452;2023-03-14T14:49:54;45.40;;;33.30;;
10699;SDS011;5401;41.986;21.452;2023-03-14T14:52:31;21.47;;;14.00;;
10699;SDS011;5401;41.986;21.452;2023-03-14T14:55:01;5.23;;;3.13;;
10699;SDS011;5401;41.986;21.452;2023-03-14T14:57:30;6.50;;;3.60;;
10699;SDS011;5401;41.986;21.452;2023-03-14T15:00:04;9.00;;;3.40;;
10699;SDS011;5401;41.986;21.452;2023-03-14T15:02:38;8.37;;;3.80;;
10699;SDS011;5401;41.986;21.452;2023-03-14T15:05:12;4.53;;;4.10;;